Time;durP1;ratioP1;P1;durP2;ratioP2;P2;SDS_P1;SDS_P2;PMS_P1;PMS_P2;Temp;Humidity;BMP_temperature;BMP_pressure;BME280_temperature;BME280_humidity;BME280_pressure;Samples;Min_cycle;Max_cycle;Signal;HPM_P1;HPM_P2
2023/05/17 00:00:27;;;;;;;;;;;18.30;51.60;;;;;;5096071;28;19969;-72
2023/05/17 00:02:52;;;;;;;;;;;18.30;51.60;;;;;;5096289;28;19919;-72
2023/05/17 00:05:18;;;;;;;;;;;18.30;51.60;;;;;;5096054;28;19973;-72
2023/05/17 00:07:43;;;;;;;;;;;18.30;51.60;;;;;;5096549;28;19926;-73
2023/05/17 00:10:09;;;;;;;;;;;18.30;51.70;;;;;;5096020;28;20444;-72
2023/05/17 00:12:34;;;;;;;;;;;18.30;51.70;;;;;;5096376;28;19927;-72
2023/05/17 00:15:00;;;;;;;;;;;18.30;51.70;;;;;;5096015;28;20392;-72
2023/05/17 00:17:25;;;;;;;;;;;18.30;51.70;;;;;;5114162;28;19920;-72
2023/05/17 00:19:51;;;;;;;;;;;18.30;51.70;;;;;;5095391;28;20014;-73
2023/05/17 00:22:16;;;;;;;;;;;18.30;51.80;;;;;;5113308;28;20306;-72
2023/05/17 00:24:42;;;;;;;;;;;18.30;51.70;;;;;;5114010;28;19920;-72
2023/05/17 00:27:07;;;;;;;;;;;18.30;51.80;;;;;;5095746;28;19926;-72
2023/05/17 00:29:33;;;;;;;;;;;18.30;51.80;;;;;;5095840;28;19919;-72
2023/05/17 00:31:58;;;;;;;;;;;18.30;52.60;;;;;;5095907;28;19970;-72
2023/05/17 00:34:24;;;;;;;;;;;18.30;51.80;;;;;;5096227;28;19963;-72
2023/05/17 00:36:49;;;;;;;;;;;18.30;51.90;;;;;;5114007;28;20417;-72
2023/05/17 00:39:15;;;;;;;;;;;18.30;51.90;;;;;;5095741;28;19920;-72
2023/05/17 00:41:40;;;;;;;;;;;18.30;51.90;;;;;;5095506;28;20290;-72
2023/05/17 00:44:06;;;;;;;;;;;18.20;51.80;;;;;;5095745;28;19923;-72
2023/05/17 00:46:32;;;;;;;;;;;18.20;51.80;;;;;;5095673;28;19920;-72
2023/05/17 00:48:58;;;;;;;;;;;18.30;51.90;;;;;;5095377;28;19920;-72
2023/05/17 00:51:23;;;;;;;;;;;18.20;51.90;;;;;;5095445;28;19927;-72
2023/05/17 00:53:49;;;;;;;;;;;18.20;52.00;;;;;;5095578;28;20263;-72
2023/05/17 00:56:15;;;;;;;;;;;18.20;51.90;;;;;;5095259;28;20000;-72
2023/05/17 00:58:40;;;;;;;;;;;18.20;51.90;;;;;;5113448;28;19920;-72
2023/05/17 01:01:06;;;;;;;;;;;18.20;52.00;;;;;;5095130;28;19927;-72
2023/05/17 01:03:31;;;;;;;;;;;18.20;52.00;;;;;;5095042;28;19924;-72
2023/05/17 01:05:57;;;;;;;;;;;18.20;52.00;;;;;;5113732;28;20286;-73
2023/05/17 01:08:22;;;;;;;;;;;18.20;52.00;;;;;;5113317;28;19927;-73
2023/05/17 01:10:55;;;;;;;;;;;18.20;52.00;;;;;;5095296;28;19927;-73
2023/05/17 01:13:32;;;;;;;;;;;18.20;52.00;;;;;;5095000;28;20382;-72
2023/05/17 01:16:04;;;;;;;;;;;18.20;52.00;;;;;;5113661;28;19943;-72
2023/05/17 01:18:47;;;;;;;;;;;18.10;52.00;;;;;;5095419;28;20009;-73
2023/05/17 01:21:26;;;;;;;;;;;18.10;51.90;;;;;;5094784;28;19954;-75
2023/05/17 01:24:01;;;;;;;;;;;18.10;51.90;;;;;;5095094;28;19919;-72
2023/05/17 01:26:37;;;;;;;;;;;18.10;51.90;;;;;;5094792;28;19924;-72
2023/05/17 01:29:04;;;;;;;;;;;18.10;51.90;;;;;;5095070;28;20375;-72
2023/05/17 01:31:30;;;;;;;;;;;18.20;52.00;;;;;;5112667;28;19919;-72
2023/05/17 01:33:57;;;;;;;;;;;18.10;51.90;;;;;;5113128;28;19923;-72
2023/05/17 01:36:23;;;;;;;;;;;18.10;51.90;;;;;;5112970;28;20363;-72
2023/05/17 01:38:48;;;;;;;;;;;18.10;51.90;;;;;;5094566;28;19963;-72
2023/05/17 01:41:21;;;;;;;;;;;18.10;51.90;;;;;;5094497;28;19924;-72
2023/05/17 01:49:25;;;;;;;;;;;18.00;51.80;;;;;;5089909;28;19919;-72
2023/05/17 01:51:56;;;;;;;;;;;18.10;51.90;;;;;;5088597;28;19924;-72
2023/05/17 01:54:22;;;;;;;;;;;18.10;51.90;;;;;;5089794;28;20295;-71
2023/05/17 01:56:55;;;;;;;;;;;18.00;52.60;;;;;;5088761;28;19928;-72
2023/05/17 01:59:23;;;;;;;;;;;18.00;51.90;;;;;;5088438;28;20390;-72
2023/05/17 02:01:52;;;;;;;;;;;18.00;51.90;;;;;;5088498;28;19920;-72
2023/05/17 02:04:17;;;;;;;;;;;18.00;51.90;;;;;;5088216;28;19924;-72
2023/05/17 02:06:43;;;;;;;;;;;18.00;51.90;;;;;;5088680;28;19928;-72
2023/05/17 02:09:08;;;;;;;;;;;18.00;51.90;;;;;;5089443;28;20009;-72
2023/05/17 02:11:35;;;;;;;;;;;18.00;51.90;;;;;;5088589;28;19920;-72
2023/05/17 02:14:00;;;;;;;;;;;18.00;51.90;;;;;;5088220;28;19974;-72
2023/05/17 02:16:25;;;;;;;;;;;18.00;51.90;;;;;;5089412;28;19985;-72
2023/05/17 02:18:51;;;;;;;;;;;18.00;51.90;;;;;;5088370;28;19935;-73
2023/05/17 02:21:17;;;;;;;;;;;17.90;51.90;;;;;;5088240;28;19925;-72
2023/05/17 02:23:42;;;;;;;;;;;18.00;52.00;;;;;;5089272;28;20010;-72
2023/05/17 02:26:08;;;;;;;;;;;17.90;51.90;;;;;;5089233;28;19942;-72
2023/05/17 02:28:33;;;;;;;;;;;18.00;52.00;;;;;;5089352;28;19925;-72
2023/05/17 02:30:59;;;;;;;;;;;17.90;51.90;;;;;;5087863;28;19920;-72
2023/05/17 02:33:24;;;;;;;;;;;17.90;51.90;;;;;;5089205;28;19920;-72
2023/05/17 02:35:50;;;;;;;;;;;17.90;51.90;;;;;;5088864;28;19921;-72
2023/05/17 02:38:16;;;;;;;;;;;17.90;52.00;;;;;;5087810;28;19962;-72
2023/05/17 02:40:41;;;;;;;;;;;17.90;51.90;;;;;;5087957;28;19928;-72
2023/05/17 02:43:07;;;;;;;;;;;18.00;52.00;;;;;;5088930;28;20008;-72
2023/05/17 02:45:32;;;;;;;;;;;17.90;51.90;;;;;;5087551;28;19920;-72
2023/05/17 02:47:58;;;;;;;;;;;17.90;51.90;;;;;;5098398;28;19976;-72
2023/05/17 02:50:23;;;;;;;;;;;17.90;51.90;;;;;;5090865;28;19927;-72
2023/05/17 02:52:49;;;;;;;;;;;17.90;52.00;;;;;;5091130;28;19920;-72
2023/05/17 02:55:14;;;;;;;;;;;17.90;51.90;;;;;;5091247;28;19920;-72
2023/05/17 02:57:40;;;;;;;;;;;18.20;51.70;;;;;;5090640;28;20303;-71
2023/05/17 03:00:05;;;;;;;;;;;18.60;51.10;;;;;;5098142;28;20010;-71
2023/05/17 03:02:31;;;;;;;;;;;19.00;50.40;;;;;;5077397;28;20390;-71
2023/05/17 03:04:56;;;;;;;;;;;19.40;49.50;;;;;;5077153;28;20101;-71
2023/05/17 03:07:22;;;;;;;;;;;20.10;48.40;;;;;;5076807;28;19924;-72
2023/05/17 03:09:47;;;;;;;;;;;20.80;47.00;;;;;;5076980;28;20090;-72
2023/05/17 03:12:13;;;;;;;;;;;21.40;45.70;;;;;;5095055;28;20014;-72
2023/05/17 03:14:38;;;;;;;;;;;22.10;44.60;;;;;;5095329;28;20347;-72
2023/05/17 03:17:04;;;;;;;;;;;22.60;43.50;;;;;;5076842;28;20019;-72
2023/05/17 03:19:29;;;;;;;;;;;23.00;42.70;;;;;;5076812;28;19927;-72
2023/05/17 03:21:55;;;;;;;;;;;23.40;42.00;;;;;;5076632;28;19920;-72
2023/05/17 03:24:20;;;;;;;;;;;23.70;41.40;;;;;;5076888;28;20018;-72
2023/05/17 03:26:45;;;;;;;;;;;23.90;40.90;;;;;;5094803;28;19973;-72
2023/05/17 03:29:11;;;;;;;;;;;24.00;40.70;;;;;;5076574;28;19924;-71
2023/05/17 03:31:36;;;;;;;;;;;24.00;40.50;;;;;;5076600;28;20298;-72
2023/05/17 03:34:02;;;;;;;;;;;23.90;40.50;;;;;;5076469;28;19920;-72
2023/05/17 03:36:27;;;;;;;;;;;23.90;40.70;;;;;;5076737;28;20298;-72
2023/05/17 03:38:53;;;;;;;;;;;23.70;40.80;;;;;;5076389;28;19924;-72
2023/05/17 03:41:19;;;;;;;;;;;23.50;41.00;;;;;;5076706;28;19954;-72
2023/05/17 03:43:44;;;;;;;;;;;23.30;41.30;;;;;;5076613;28;19985;-72
2023/05/17 03:46:10;;;;;;;;;;;23.10;41.60;;;;;;5076306;28;20323;-72
2023/05/17 03:48:35;;;;;;;;;;;22.90;41.80;;;;;;5094118;28;20303;-72
2023/05/17 03:51:01;;;;;;;;;;;22.70;42.10;;;;;;5076240;28;19946;-72
2023/05/17 03:53:27;;;;;;;;;;;22.50;42.40;;;;;;5076126;28;19969;-72
2023/05/17 03:55:52;;;;;;;;;;;22.40;42.70;;;;;;5076469;28;19924;-72
2023/05/17 03:58:17;;;;;;;;;;;22.20;42.90;;;;;;5094146;28;19992;-72
2023/05/17 04:00:43;;;;;;;;;;;22.00;43.10;;;;;;5076443;28;19920;-72
2023/05/17 04:03:08;;;;;;;;;;;21.90;43.40;;;;;;5075912;28;20444;-72
2023/05/17 04:05:34;;;;;;;;;;;21.70;43.60;;;;;;5076248;28;20015;-72
2023/05/17 04:08:00;;;;;;;;;;;21.60;43.80;;;;;;5075945;28;20403;-72
2023/05/17 04:10:25;;;;;;;;;;;21.40;44.10;;;;;;5074554;28;19927;-72
2023/05/17 04:12:51;;;;;;;;;;;21.30;44.20;;;;;;5093483;28;19962;-72
2023/05/17 04:15:16;;;;;;;;;;;21.20;44.40;;;;;;5075750;28;19967;-72
2023/05/17 04:17:42;;;;;;;;;;;21.30;44.40;;;;;;5094039;28;19920;-72
2023/05/17 04:20:07;;;;;;;;;;;21.30;44.30;;;;;;5075595;28;19931;-72
2023/05/17 04:22:33;;;;;;;;;;;21.40;44.20;;;;;;5093850;28;19927;-72
2023/05/17 04:24:58;;;;;;;;;;;21.50;43.90;;;;;;5075706;28;19927;-71
2023/05/17 04:27:24;;;;;;;;;;;21.60;43.60;;;;;;5075697;28;19931;-71
2023/05/17 04:29:50;;;;;;;;;;;21.70;43.40;;;;;;5075704;28;20046;-72
2023/05/17 04:32:16;;;;;;;;;;;21.80;43.20;;;;;;5075447;28;19920;-72
2023/05/17 04:34:42;;;;;;;;;;;21.90;43.00;;;;;;5075645;28;20440;-72
2023/05/17 04:37:07;;;;;;;;;;;22.00;42.90;;;;;;5075488;28;19990;-72
2023/05/17 04:39:33;;;;;;;;;;;22.00;42.70;;;;;;5075313;28;19920;-72
2023/05/17 04:41:58;;;;;;;;;;;22.10;42.60;;;;;;5075477;28;19966;-71
2023/05/17 04:44:24;;;;;;;;;;;22.10;42.50;;;;;;5075147;28;19920;-71
2023/05/17 04:46:49;;;;;;;;;;;22.10;42.30;;;;;;5075210;28;19920;-71
2023/05/17 04:49:15;;;;;;;;;;;22.20;42.40;;;;;;5075091;28;19940;-71
2023/05/17 04:51:40;;;;;;;;;;;22.10;42.30;;;;;;5074922;28;19920;-72
2023/05/17 04:54:07;;;;;;;;;;;22.10;42.30;;;;;;5093162;28;19970;-72
2023/05/17 04:56:34;;;;;;;;;;;22.10;42.30;;;;;;5075177;28;20027;-72
2023/05/17 04:59:01;;;;;;;;;;;22.10;42.30;;;;;;5075221;28;19952;-71
2023/05/17 05:01:28;;;;;;;;;;;22.10;42.40;;;;;;5074921;28;19920;-72
2023/05/17 05:03:53;;;;;;;;;;;22.00;42.50;;;;;;5093068;28;19920;-72
2023/05/17 05:06:20;;;;;;;;;;;21.90;42.50;;;;;;5075055;28;20007;-72
2023/05/17 05:08:46;;;;;;;;;;;21.90;42.60;;;;;;5074802;28;19920;-72
2023/05/17 05:11:11;;;;;;;;;;;21.80;42.60;;;;;;5074911;28;20361;-72
2023/05/17 05:13:37;;;;;;;;;;;21.80;42.70;;;;;;5074770;28;19963;-72
2023/05/17 05:16:03;;;;;;;;;;;21.70;42.80;;;;;;5074809;28;19920;-71
2023/05/17 05:18:29;;;;;;;;;;;21.70;42.90;;;;;;5091509;28;20303;-72
2023/05/17 05:20:55;;;;;;;;;;;21.60;42.90;;;;;;5072724;28;19920;-72
2023/05/17 05:23:20;;;;;;;;;;;21.60;43.00;;;;;;5073924;28;19928;-67
2023/05/17 05:25:46;;;;;;;;;;;21.60;43.00;;;;;;5073765;28;19920;-68
2023/05/17 05:28:11;;;;;;;;;;;21.60;43.00;;;;;;5073334;28;20295;-69
2023/05/17 05:30:37;;;;;;;;;;;21.60;43.00;;;;;;5073028;28;20296;-68
2023/05/17 05:33:02;;;;;;;;;;;21.60;42.90;;;;;;5072773;28;19975;-67
2023/05/17 05:35:28;;;;;;;;;;;21.60;43.00;;;;;;5073625;28;19920;-67
2023/05/17 05:37:54;;;;;;;;;;;21.60;43.00;;;;;;5052704;28;19991;-67
2023/05/17 05:40:20;;;;;;;;;;;21.60;42.90;;;;;;5071695;28;20392;-67
2023/05/17 05:42:45;;;;;;;;;;;21.60;42.80;;;;;;5078015;28;19920;-67
2023/05/17 05:45:11;;;;;;;;;;;21.60;42.80;;;;;;5072217;28;20287;-66
2023/05/17 05:47:36;;;;;;;;;;;21.60;42.70;;;;;;5088508;28;19969;-67
2023/05/17 05:50:03;;;;;;;;;;;21.70;42.80;;;;;;5078970;28;19920;-67
2023/05/17 05:52:28;;;;;;;;;;;21.70;42.70;;;;;;5070113;28;19927;-67
2023/05/17 05:54:54;;;;;;;;;;;21.70;42.60;;;;;;5085819;28;19920;-66
2023/05/17 05:57:19;;;;;;;;;;;21.70;42.40;;;;;;5067171;28;19920;-66
2023/05/17 05:59:45;;;;;;;;;;;21.60;42.30;;;;;;5065025;28;19993;-68
2023/05/17 06:02:10;;;;;;;;;;;21.70;42.40;;;;;;5061986;28;19932;-68
2023/05/17 06:04:37;;;;;;;;;;;21.70;42.70;;;;;;5062690;28;20383;-67
2023/05/17 06:07:02;;;;;;;;;;;21.60;42.40;;;;;;5063162;28;20389;-68
2023/05/17 06:09:28;;;;;;;;;;;21.70;42.40;;;;;;5078279;28;20011;-69
2023/05/17 06:11:53;;;;;;;;;;;21.70;42.50;;;;;;5084299;28;19971;-68
2023/05/17 06:14:19;;;;;;;;;;;21.70;42.50;;;;;;5065742;28;19928;-68
2023/05/17 06:16:47;;;;;;;;;;;21.70;42.40;;;;;;5077530;28;20385;-67
2023/05/17 06:19:13;;;;;;;;;;;21.80;42.40;;;;;;5066002;28;20230;-68
2023/05/17 06:21:38;;;;;;;;;;;21.80;42.30;;;;;;5067837;28;20383;-68
2023/05/17 06:24:04;;;;;;;;;;;21.80;42.30;;;;;;5069595;28;20357;-72
2023/05/17 06:26:30;;;;;;;;;;;21.80;42.20;;;;;;5055699;28;19924;-70
2023/05/17 06:28:55;;;;;;;;;;;21.80;42.20;;;;;;5050066;28;19930;-69
2023/05/17 06:31:21;;;;;;;;;;;21.70;42.10;;;;;;5048062;28;19924;-69
2023/05/17 06:33:46;;;;;;;;;;;21.70;42.00;;;;;;5066770;28;19984;-71
2023/05/17 06:36:12;;;;;;;;;;;21.70;42.00;;;;;;5074815;28;19971;-69
2023/05/17 06:38:37;;;;;;;;;;;21.80;42.00;;;;;;5068844;28;19924;-70
2023/05/17 06:41:03;;;;;;;;;;;21.70;42.10;;;;;;5053946;28;20049;-68
2023/05/17 06:43:28;;;;;;;;;;;21.80;42.20;;;;;;5068497;28;19930;-69
2023/05/17 06:45:54;;;;;;;;;;;21.90;42.30;;;;;;5069152;28;19983;-68
2023/05/17 06:48:19;;;;;;;;;;;21.90;42.40;;;;;;5071487;28;19929;-67
2023/05/17 06:50:45;;;;;;;;;;;22.00;42.60;;;;;;5071304;28;20440;-70
2023/05/17 06:53:10;;;;;;;;;;;22.00;43.50;;;;;;5057879;28;19924;-70
2023/05/17 06:55:36;;;;;;;;;;;21.90;42.80;;;;;;5053445;28;19924;-71
2023/05/17 06:58:01;;;;;;;;;;;21.90;43.10;;;;;;5057464;28;20367;-68
2023/05/17 07:00:27;;;;;;;;;;;22.00;43.20;;;;;;5055723;28;20139;-66
2023/05/17 07:02:52;;;;;;;;;;;22.00;43.40;;;;;;5071926;28;19978;-72
2023/05/17 07:05:18;;;;;;;;;;;22.00;43.60;;;;;;5055494;28;20384;-73
2023/05/17 07:07:43;;;;;;;;;;;22.00;43.70;;;;;;5051449;28;20031;-69
2023/05/17 07:10:09;;;;;;;;;;;21.90;43.90;;;;;;5051838;28;19924;-70
2023/05/17 07:12:34;;;;;;;;;;;21.90;44.00;;;;;;5073265;28;19931;-66
2023/05/17 07:15:00;;;;;;;;;;;21.90;44.20;;;;;;5071483;28;19968;-68
2023/05/17 07:17:26;;;;;;;;;;;21.90;44.30;;;;;;5059292;28;19924;-72
2023/05/17 07:19:51;;;;;;;;;;;21.90;44.40;;;;;;5056448;28;20063;-69
2023/05/17 07:22:17;;;;;;;;;;;21.80;44.50;;;;;;5059340;28;19929;-67
2023/05/17 07:24:43;;;;;;;;;;;21.80;44.60;;;;;;5061989;28;20324;-67
2023/05/17 07:27:08;;;;;;;;;;;21.70;44.50;;;;;;5072752;28;19921;-69
2023/05/17 07:29:34;;;;;;;;;;;21.70;44.50;;;;;;5054625;28;20484;-66
2023/05/17 07:32:00;;;;;;;;;;;21.70;44.40;;;;;;5057677;28;19924;-69
2023/05/17 07:34:25;;;;;;;;;;;21.70;44.40;;;;;;5048999;28;19970;-70
2023/05/17 07:36:51;;;;;;;;;;;21.70;44.50;;;;;;5064517;28;20730;-68
2023/05/17 07:39:16;;;;;;;;;;;21.70;44.40;;;;;;5048519;28;19978;-67
2023/05/17 07:41:42;;;;;;;;;;;21.70;44.50;;;;;;5047419;28;19920;-70
2023/05/17 07:44:07;;;;;;;;;;;21.70;44.40;;;;;;5067204;28;19929;-71
2023/05/17 07:46:33;;;;;;;;;;;21.70;44.30;;;;;;5054181;28;19920;-70
2023/05/17 07:48:58;;;;;;;;;;;21.70;44.20;;;;;;5070886;28;20394;-71
2023/05/17 07:51:24;;;;;;;;;;;21.70;44.10;;;;;;5054449;28;19920;-68
2023/05/17 07:53:49;;;;;;;;;;;21.80;44.10;;;;;;5068108;28;19925;-70
2023/05/17 07:56:15;;;;;;;;;;;21.80;44.10;;;;;;5054429;28;19931;-69
2023/05/17 07:58:40;;;;;;;;;;;21.80;44.20;;;;;;5052277;28;20688;-72
2023/05/17 08:01:08;;;;;;;;;;;21.80;44.20;;;;;;5050401;28;19920;-75
2023/05/17 08:03:34;;;;;;;;;;;21.70;44.10;;;;;;5073338;28;19932;-74
2023/05/17 08:05:59;;;;;;;;;;;21.70;44.20;;;;;;5075549;28;20499;-73
2023/05/17 08:08:25;;;;;;;;;;;21.70;44.30;;;;;;5053512;28;19932;-73
2023/05/17 08:10:50;;;;;;;;;;;21.60;44.20;;;;;;5071663;28;19959;-73
2023/05/17 08:13:16;;;;;;;;;;;21.60;44.30;;;;;;5072288;28;19947;-71
2023/05/17 08:15:41;;;;;;;;;;;21.60;44.30;;;;;;5074121;28;19982;-68
2023/05/17 08:18:07;;;;;;;;;;;21.60;44.20;;;;;;5058983;28;20513;-68
2023/05/17 08:20:32;;;;;;;;;;;21.60;43.90;;;;;;5061769;28;19920;-70
2023/05/17 08:22:58;;;;;;;;;;;21.60;43.60;;;;;;5069288;28;20368;-69
2023/05/17 08:25:24;;;;;;;;;;;21.70;43.60;;;;;;5061763;28;20838;-69
2023/05/17 08:27:50;;;;;;;;;;;21.70;43.40;;;;;;5073692;28;19982;-68
2023/05/17 08:30:16;;;;;;;;;;;21.70;43.20;;;;;;5057650;28;19992;-68
2023/05/17 08:32:41;;;;;;;;;;;21.70;43.20;;;;;;5057292;28;20343;-71
2023/05/17 08:35:07;;;;;;;;;;;21.60;42.90;;;;;;5046160;28;19993;-72
2023/05/17 08:37:32;;;;;;;;;;;21.60;42.60;;;;;;5054973;28;19931;-71
2023/05/17 08:39:58;;;;;;;;;;;21.60;42.50;;;;;;5058692;28;19924;-72
2023/05/17 08:42:24;;;;;;;;;;;21.60;42.50;;;;;;5056060;28;20026;-69
2023/05/17 08:44:50;;;;;;;;;;;21.60;42.50;;;;;;5053480;28;20701;-69
2023/05/17 08:47:25;;;;;;;;;;;21.60;42.70;;;;;;5071617;28;20007;-70
2023/05/17 08:49:51;;;;;;;;;;;21.70;43.00;;;;;;5065688;28;19992;-70
2023/05/17 08:52:16;;;;;;;;;;;21.70;43.10;;;;;;5073156;28;19924;-69
2023/05/17 08:54:42;;;;;;;;;;;21.70;43.20;;;;;;5058670;28;20019;-69
2023/05/17 08:57:09;;;;;;;;;;;21.70;43.30;;;;;;5062467;28;19924;-68
2023/05/17 08:59:35;;;;;;;;;;;21.70;43.40;;;;;;5076709;28;19923;-70
2023/05/17 09:02:01;;;;;;;;;;;21.70;43.50;;;;;;5076649;28;20299;-68
2023/05/17 09:04:28;;;;;;;;;;;21.60;43.40;;;;;;5053880;28;20035;-71
2023/05/17 09:06:54;;;;;;;;;;;21.60;43.50;;;;;;5063461;28;19960;-71
2023/05/17 09:09:20;;;;;;;;;;;21.60;43.50;;;;;;5054988;28;20421;-68
2023/05/17 09:11:46;;;;;;;;;;;21.50;43.50;;;;;;5052555;28;19928;-68
2023/05/17 09:14:13;;;;;;;;;;;21.40;43.40;;;;;;5071660;28;19942;-70
2023/05/17 09:16:39;;;;;;;;;;;21.40;43.50;;;;;;5073207;28;20562;-69
2023/05/17 09:19:06;;;;;;;;;;;21.40;43.60;;;;;;5055730;28;19927;-70
2023/05/17 09:21:32;;;;;;;;;;;21.40;43.60;;;;;;5050963;28;19924;-68
2023/05/17 09:24:00;;;;;;;;;;;21.30;43.70;;;;;;5065442;28;19955;-70
2023/05/17 09:26:36;;;;;;;;;;;21.30;43.90;;;;;;5069001;28;19968;-70
2023/05/17 09:29:01;;;;;;;;;;;21.30;43.90;;;;;;5051770;28;20615;-70
2023/05/17 09:31:32;;;;;;;;;;;21.30;44.20;;;;;;5066446;28;20112;-70
2023/05/17 09:33:57;;;;;;;;;;;21.30;44.10;;;;;;5049220;28;19944;-69
2023/05/17 09:36:23;;;;;;;;;;;21.30;44.00;;;;;;5070918;28;19928;-69
2023/05/17 09:38:58;;;;;;;;;;;21.30;44.00;;;;;;5067353;28;20023;-70
2023/05/17 09:41:27;;;;;;;;;;;21.30;42.90;;;;;;5070102;28;20076;-70
2023/05/17 09:43:52;;;;;;;;;;;21.20;43.00;;;;;;5048775;28;19932;-70
2023/05/17 09:46:18;;;;;;;;;;;21.20;43.40;;;;;;5069424;28;19924;-70
2023/05/17 09:48:45;;;;;;;;;;;21.20;42.20;;;;;;5054294;28;19929;-71
2023/05/17 09:51:11;;;;;;;;;;;21.20;42.40;;;;;;5065014;28;19985;-71
2023/05/17 09:53:38;;;;;;;;;;;21.20;42.20;;;;;;5067518;28;20488;-71
2023/05/17 09:56:05;;;;;;;;;;;21.20;40.90;;;;;;5066734;28;19932;-70
2023/05/17 09:58:32;;;;;;;;;;;21.20;39.40;;;;;;5052566;28;19924;-70
2023/05/17 10:00:58;;;;;;;;;;;21.20;38.50;;;;;;5066780;28;19944;-72
2023/05/17 10:03:25;;;;;;;;;;;21.10;40.50;;;;;;5031958;28;19943;-71
2023/05/17 10:05:52;;;;;;;;;;;21.10;38.20;;;;;;5064265;28;19929;-70
2023/05/17 10:08:20;;;;;;;;;;;21.10;36.80;;;;;;5059094;28;19984;-71
2023/05/17 10:10:47;;;;;;;;;;;21.00;37.80;;;;;;5055560;28;21428;-71
2023/05/17 10:13:14;;;;;;;;;;;21.00;38.20;;;;;;5067502;28;19927;-71
2023/05/17 10:15:41;;;;;;;;;;;21.00;37.90;;;;;;5069223;28;19920;-69
2023/05/17 10:18:07;;;;;;;;;;;21.00;38.30;;;;;;5072769;28;19924;-69
2023/05/17 10:20:33;;;;;;;;;;;21.00;38.50;;;;;;5052076;28;20443;-71
2023/05/17 10:22:59;;;;;;;;;;;21.00;38.40;;;;;;5052620;28;19936;-70
2023/05/17 10:25:25;;;;;;;;;;;21.00;37.40;;;;;;5055135;28;19966;-69
2023/05/17 10:27:51;;;;;;;;;;;20.90;37.80;;;;;;5055572;28;19935;-71
2023/05/17 10:30:17;;;;;;;;;;;20.90;37.70;;;;;;5060881;28;20378;-70
2023/05/17 10:32:44;;;;;;;;;;;20.90;38.10;;;;;;5072135;28;19924;-71
2023/05/17 10:35:10;;;;;;;;;;;20.90;38.80;;;;;;5054779;28;20007;-69
2023/05/17 10:37:36;;;;;;;;;;;20.90;38.80;;;;;;5056329;28;19924;-70
2023/05/17 10:40:02;;;;;;;;;;;21.00;39.20;;;;;;5057168;28;19927;-71
2023/05/17 10:42:29;;;;;;;;;;;21.00;38.90;;;;;;5055886;28;19928;-74
2023/05/17 10:44:55;;;;;;;;;;;21.10;39.30;;;;;;5056398;28;20366;-71
2023/05/17 10:47:21;;;;;;;;;;;21.10;38.60;;;;;;5070471;28;19978;-69
2023/05/17 10:49:48;;;;;;;;;;;21.20;38.40;;;;;;5063788;28;19928;-71
2023/05/17 10:52:16;;;;;;;;;;;21.20;37.90;;;;;;5069446;28;20346;-69
2023/05/17 10:54:42;;;;;;;;;;;21.10;38.70;;;;;;5061046;28;20128;-67
2023/05/17 10:57:10;;;;;;;;;;;21.10;38.50;;;;;;5072489;28;19931;-72
2023/05/17 10:59:54;;;;;;;;;;;21.10;38.70;;;;;;5070954;28;19924;-70
2023/05/17 11:02:22;;;;;;;;;;;21.10;37.90;;;;;;5072054;28;19928;-71
2023/05/17 11:04:52;;;;;;;;;;;21.30;39.00;;;;;;5071125;28;20413;-72
2023/05/17 11:12:40;;;;;;;;;;;21.40;37.00;;;;;;5072549;28;19920;-68
2023/05/17 11:15:07;;;;;;;;;;;21.40;36.40;;;;;;5064697;28;19947;-68
2023/05/17 11:17:35;;;;;;;;;;;21.40;36.30;;;;;;5063153;28;19925;-67
2023/05/17 11:20:04;;;;;;;;;;;21.30;37.40;;;;;;5067230;28;20359;-68
2023/05/17 11:22:39;;;;;;;;;;;21.30;36.80;;;;;;5054945;28;20600;-67
2023/05/17 11:25:05;;;;;;;;;;;21.30;36.40;;;;;;5066838;28;19948;-67
2023/05/17 11:27:35;;;;;;;;;;;21.20;36.20;;;;;;5067990;28;20006;-67
2023/05/17 11:30:06;;;;;;;;;;;21.20;36.00;;;;;;5068631;28;19930;-67
2023/05/17 11:32:31;;;;;;;;;;;21.10;35.60;;;;;;5066973;28;19929;-67
2023/05/17 11:35:00;;;;;;;;;;;21.00;36.60;;;;;;5067882;28;20281;-67
2023/05/17 11:37:26;;;;;;;;;;;21.10;36.00;;;;;;5067533;28;20133;-67
2023/05/17 11:40:09;;;;;;;;;;;21.10;36.90;;;;;;5083743;28;20277;-67
2023/05/17 11:42:36;;;;;;;;;;;21.00;36.00;;;;;;5066650;28;19925;-67
2023/05/17 11:45:02;;;;;;;;;;;21.00;36.70;;;;;;5065380;28;20099;-67
2023/05/17 11:47:28;;;;;;;;;;;21.00;36.10;;;;;;5064484;28;19925;-67
2023/05/17 11:49:54;;;;;;;;;;;20.90;35.90;;;;;;5065233;28;19925;-67
2023/05/17 11:52:20;;;;;;;;;;;20.90;35.80;;;;;;5066607;28;20139;-67
2023/05/17 11:54:46;;;;;;;;;;;20.90;36.30;;;;;;5065629;28;20479;-67
2023/05/17 11:57:15;;;;;;;;;;;21.00;36.50;;;;;;5061574;28;20418;-67
2023/05/17 11:59:41;;;;;;;;;;;21.10;36.90;;;;;;5060158;28;20023;-67
2023/05/17 12:02:07;;;;;;;;;;;21.10;35.50;;;;;;5061927;28;19925;-67
2023/05/17 12:04:36;;;;;;;;;;;21.10;35.40;;;;;;5059781;28;19929;-67
2023/05/17 12:07:02;;;;;;;;;;;21.20;34.90;;;;;;5058183;28;19943;-68
2023/05/17 12:09:28;;;;;;;;;;;21.10;34.80;;;;;;5076844;28;19921;-67
2023/05/17 12:11:54;;;;;;;;;;;21.10;35.00;;;;;;5059746;28;20462;-67
2023/05/17 12:14:20;;;;;;;;;;;21.10;34.80;;;;;;5059604;28;19925;-66
2023/05/17 12:16:49;;;;;;;;;;;21.10;35.20;;;;;;5068782;28;19921;-66
2023/05/17 12:19:18;;;;;;;;;;;21.10;34.70;;;;;;5060095;28;20021;-66
2023/05/17 12:21:45;;;;;;;;;;;21.20;34.90;;;;;;5054690;28;19931;-65
2023/05/17 12:24:10;;;;;;;;;;;21.10;35.60;;;;;;5037318;28;20183;-66
2023/05/17 12:26:41;;;;;;;;;;;21.10;35.30;;;;;;5041562;28;20359;-66
2023/05/17 12:29:06;;;;;;;;;;;21.10;35.30;;;;;;5039682;28;20012;-66
2023/05/17 12:31:33;;;;;;;;;;;21.10;35.50;;;;;;5039702;28;20047;-68
2023/05/17 12:34:00;;;;;;;;;;;21.10;35.80;;;;;;5036287;28;20439;-69
2023/05/17 12:36:27;;;;;;;;;;;21.00;36.40;;;;;;5053984;28;20510;-66
2023/05/17 12:38:53;;;;;;;;;;;21.00;36.60;;;;;;5040896;28;20388;-67
2023/05/17 12:41:21;;;;;;;;;;;21.10;36.50;;;;;;5038703;28;19925;-68
2023/05/17 12:43:47;;;;;;;;;;;21.10;36.40;;;;;;5048067;28;20406;-67
2023/05/17 12:46:16;;;;;;;;;;;21.10;36.50;;;;;;5053004;28;19968;-68
2023/05/17 12:48:42;;;;;;;;;;;21.10;36.60;;;;;;5045401;28;19921;-68
2023/05/17 12:51:23;;;;;;;;;;;21.10;36.60;;;;;;5042532;28;19947;-68
2023/05/17 12:53:50;;;;;;;;;;;21.00;36.60;;;;;;5046007;28;19920;-67
2023/05/17 12:56:17;;;;;;;;;;;21.00;36.60;;;;;;5046222;28;19925;-67
2023/05/17 12:58:42;;;;;;;;;;;21.00;36.50;;;;;;5031443;28;19987;-68
2023/05/17 13:01:13;;;;;;;;;;;20.90;36.00;;;;;;5043198;28;19964;-68
2023/05/17 13:03:40;;;;;;;;;;;20.80;36.60;;;;;;5033362;28;19921;-68
2023/05/17 13:06:08;;;;;;;;;;;20.80;36.20;;;;;;5040324;28;20037;-68
2023/05/17 13:08:34;;;;;;;;;;;20.70;36.70;;;;;;5035288;28;19936;-67
2023/05/17 13:11:14;;;;;;;;;;;20.70;36.90;;;;;;5058262;28;19928;-68
2023/05/17 13:13:40;;;;;;;;;;;20.70;37.30;;;;;;5051235;28;20422;-67
2023/05/17 13:16:06;;;;;;;;;;;20.70;37.30;;;;;;5052465;28;19920;-69
2023/05/17 13:18:45;;;;;;;;;;;20.70;37.80;;;;;;5049831;28;19924;-71
2023/05/17 13:21:11;;;;;;;;;;;20.70;37.40;;;;;;5038684;28;19929;-71
2023/05/17 13:23:41;;;;;;;;;;;20.60;37.30;;;;;;5029828;28;20764;-71
2023/05/17 13:26:06;;;;;;;;;;;20.60;37.30;;;;;;5044836;28;19929;-71
2023/05/17 13:28:32;;;;;;;;;;;20.60;37.10;;;;;;5040070;28;20346;-71
2023/05/17 13:30:57;;;;;;;;;;;20.50;36.80;;;;;;5037999;28;19929;-72
2023/05/17 13:33:23;;;;;;;;;;;20.50;37.00;;;;;;5040371;28;19959;-72
2023/05/17 13:35:48;;;;;;;;;;;20.50;37.30;;;;;;5036881;28;19921;-73
2023/05/17 13:38:14;;;;;;;;;;;20.40;36.60;;;;;;5057882;28;19925;-72
2023/05/17 13:40:43;;;;;;;;;;;20.40;36.40;;;;;;5039149;28;19932;-72
2023/05/17 13:43:08;;;;;;;;;;;20.40;36.40;;;;;;5040875;28;19921;-73
2023/05/17 13:45:34;;;;;;;;;;;20.30;36.40;;;;;;5036963;28;20023;-72
2023/05/17 13:48:00;;;;;;;;;;;20.30;36.60;;;;;;5041039;28;19924;-70
2023/05/17 13:50:25;;;;;;;;;;;20.20;36.70;;;;;;5042074;28;19932;-70
2023/05/17 13:52:51;;;;;;;;;;;20.20;37.80;;;;;;5061971;28;19932;-70
2023/05/17 13:55:17;;;;;;;;;;;20.20;37.90;;;;;;5043292;28;19932;-70
2023/05/17 13:57:44;;;;;;;;;;;20.20;37.90;;;;;;5060825;28;19925;-72
2023/05/17 14:00:10;;;;;;;;;;;20.20;37.90;;;;;;5054567;28;20364;-72
2023/05/17 14:02:35;;;;;;;;;;;20.20;38.10;;;;;;5037519;28;19967;-71
2023/05/17 14:05:01;;;;;;;;;;;20.20;38.20;;;;;;5032957;28;20789;-68
2023/05/17 14:07:27;;;;;;;;;;;20.20;38.30;;;;;;5037934;28;19921;-71
2023/05/17 14:09:53;;;;;;;;;;;20.20;38.10;;;;;;5043645;28;19924;-71
2023/05/17 14:12:18;;;;;;;;;;;20.10;37.80;;;;;;5048689;28;19928;-71
2023/05/17 14:14:44;;;;;;;;;;;20.10;37.40;;;;;;5042310;28;19921;-71
2023/05/17 14:17:09;;;;;;;;;;;20.10;37.90;;;;;;5041779;28;19991;-70
2023/05/17 14:19:35;;;;;;;;;;;20.10;38.30;;;;;;5044715;28;20524;-71
2023/05/17 14:22:00;;;;;;;;;;;20.00;38.10;;;;;;5050572;28;20149;-71